Time;durP1;ratioP1;P1;durP2;ratioP2;P2;SDS_P1;SDS_P2;PMS_P1;PMS_P2;Temp;Humidity;BMP_temperature;BMP_pressure;BME280_temperature;BME280_humidity;BME280_pressure;Samples;Min_cycle;Max_cycle;Signal;HPM_P1;HPM_P2
2021/06/05 00:00:18;;;;;;;;;;;;;;;18.99;79.66;101953.63;5114617;28;20498;-40
2021/06/05 00:02:44;;;;;;;10.63;9.65;;;;;;;18.80;82.22;101946.88;5113558;28;19911;-40
2021/06/05 00:05:09;;;;;;;;;;;;;;;19.00;80.10;101952.53;5114100;28;20482;-40
2021/06/05 00:07:34;;;;;;;10.98;9.93;;;;;;;18.79;81.76;101946.03;5117275;28;19968;-40
2021/06/05 00:10:00;;;;;;;;;;;;;;;18.93;79.60;101951.91;5118446;28;20104;-39
2021/06/05 00:12:27;;;;;;;9.82;8.93;;;;;;;18.74;82.17;101951.47;5117299;28;19915;-40
2021/06/05 00:14:53;;;;;;;11.07;10.07;;;;;;;18.63;82.74;101945.00;5117584;28;20027;-40
2021/06/05 00:17:19;;;;;;;11.88;10.68;;;;;;;18.71;82.51;101941.03;5117404;28;20039;-39
2021/06/05 00:19:44;;;;;;;;;;;;;;;18.86;80.26;101938.44;5117845;28;20068;-39
2021/06/05 00:22:10;;;;;;;11.68;10.48;;;;;;;18.71;82.62;101944.59;5117661;28;20245;-39
2021/06/05 00:24:36;;;;;;;12.43;11.23;;;;;;;18.61;82.75;101944.44;5117302;28;20490;-40
2021/06/05 00:27:01;;;;;;;;;;;;;;;18.81;80.50;101937.56;5117437;28;20020;-40
2021/06/05 00:29:26;;;;;;;12.18;11.07;;;;;;;18.67;82.58;101937.09;5117015;28;19911;-40
2021/06/05 00:31:51;;;;;;;;;;;;;;;18.81;80.58;101932.06;5117984;28;20036;-39
2021/06/05 00:34:17;;;;;;;11.37;10.37;;;;;;;18.70;82.12;101933.91;5117765;28;19919;-40
2021/06/05 00:36:42;;;;;;;;;;;;;;;18.85;80.55;101928.56;5118016;28;20377;-40
2021/06/05 00:39:09;;;;;;;12.68;11.48;;;;;;;18.72;82.74;101935.28;5117415;28;19912;-39
2021/06/05 00:41:35;;;;;;;13.18;11.90;;;;;;;18.71;82.66;101932.81;5117346;28;20365;-40
2021/06/05 00:44:03;;;;;;;;;;;;;;;18.86;80.55;101929.38;5117403;28;20055;-40
2021/06/05 00:46:30;;;;;;;13.07;11.98;;;;;;;18.57;83.07;101923.31;5117708;27;19919;-39
2021/06/05 00:48:56;;;;;;;13.73;12.52;;;;;;;18.62;82.91;101921.44;5116903;28;20024;-40
2021/06/05 00:51:28;;;;;;;14.20;13.00;;;;;;;18.66;83.04;101921.75;5116836;28;20211;-40
2021/06/05 00:53:53;;;;;;;14.27;12.82;;;;;;;18.64;83.20;101930.25;5116821;28;20024;-39
2021/06/05 00:56:19;;;;;;;;;;;;;;;18.81;80.84;101926.59;5117262;28;20110;-39
2021/06/05 00:58:44;;;;;;;14.25;12.85;;;;;;;18.75;82.52;101929.28;5116640;28;19912;-39
2021/06/05 01:01:15;;;;;;;;;;;;;;;18.84;80.79;101926.91;5117423;28;20031;-40
2021/06/05 01:03:40;;;;;;;17.67;15.88;;;;;;;18.71;82.60;101933.63;5116896;28;19931;-39
2021/06/05 01:06:13;;;;;;;;;;;;;;;18.84;81.04;101943.34;5117082;28;20024;-39
2021/06/05 01:09:00;;;;;;;24.45;19.00;;;;;;;18.68;83.49;101945.09;5116603;28;20273;-39
2021/06/05 01:11:37;;;;;;;28.23;21.38;;;;;;;18.62;84.18;101935.13;5116261;28;20039;-40
2021/06/05 01:14:06;;;;;;;26.02;22.42;;;;;;;18.61;84.33;101933.50;5115649;28;20479;-39
2021/06/05 01:16:32;;;;;;;28.48;23.70;;;;;;;18.61;84.42;101935.41;5116463;28;20371;-40
2021/06/05 01:19:04;;;;;;;30.85;23.35;;;;;;;18.53;84.60;101932.03;5113492;28;20395;-39
2021/06/05 01:22:10;;;;;;;29.75;24.45;;;;;;;18.63;84.15;101936.78;5116682;28;20054;-39
2021/06/05 01:24:43;;;;;;;31.00;25.02;;;;;;;18.62;85.21;101935.13;5116775;28;20058;-39
2021/06/05 01:27:13;;;;;;;32.05;25.45;;;;;;;18.60;85.29;101931.84;5116760;28;20066;-40
2021/06/05 01:29:42;;;;;;;31.05;26.33;;;;;;;18.60;85.29;101931.84;5116179;28;20023;-39
2021/06/05 01:32:13;;;;;;;33.47;26.40;;;;;;;18.61;85.44;101933.50;5116915;28;20023;-40
2021/06/05 01:34:43;;;;;;;32.75;26.90;;;;;;;18.60;85.55;101939.25;5116019;28;20498;-40
2021/06/05 01:37:10;;;;;;;36.13;28.45;;;;;;;18.57;85.48;101926.88;5116420;28;20414;-39
2021/06/05 01:39:38;;;;;;;32.78;27.38;;;;;;;18.52;85.56;101930.38;5116494;28;20530;-40
2021/06/05 01:42:13;;;;;;;34.25;28.25;;;;;;;18.54;85.95;101930.13;5115634;28;20080;-39
2021/06/05 01:44:40;;;;;;;34.30;27.77;;;;;;;18.52;85.59;101926.81;5116212;28;20027;-40
2021/06/05 01:47:06;;;;;;;32.22;27.27;;;;;;;18.59;85.50;101924.69;5115885;28;20031;-39
2021/06/05 01:49:31;;;;;;;;;;;;;;;18.74;83.49;101933.13;5116907;28;20020;-40
2021/06/05 01:52:07;;;;;;;31.90;25.95;;;;;;;18.63;85.50;101930.50;5115835;28;19923;-39
2021/06/05 01:54:35;;;;;;;34.25;28.63;;;;;;;18.61;85.56;101925.28;5115784;28;20028;-40
2021/06/05 01:57:05;;;;;;;36.42;28.88;;;;;;;18.51;86.28;101916.97;5116061;28;20084;-39
2021/06/05 01:59:31;;;;;;;35.20;29.77;;;;;;;18.59;86.12;101921.13;5115666;28;20062;-39
2021/06/05 02:01:57;;;;;;;;;;;;;;;18.75;84.17;101921.06;5116550;28;20063;-40
2021/06/05 02:04:23;;;;;;;32.85;28.02;;;;;;;18.63;86.08;101920.34;5115830;28;19964;-40
2021/06/05 02:06:49;;;;;;;;;;;;;;;18.80;83.64;101928.50;5116154;28;20055;-40
2021/06/05 02:09:17;;;;;;;34.13;28.58;;;;;;;18.62;85.88;101921.44;5115177;28;20363;-40
2021/06/05 02:11:49;;;;;;;39.03;31.38;;;;;;;18.60;86.71;101920.88;5115291;27;20035;-40
2021/06/05 02:14:20;;;;;;;37.53;31.50;;;;;;;18.60;86.67;101920.88;5115307;28;20107;-40
2021/06/05 02:16:50;;;;;;;34.60;30.85;;;;;;;18.63;86.33;101916.78;5114866;28;20024;-39
2021/06/05 02:19:27;;;;;;;34.10;30.38;;;;;;;18.66;86.17;101925.31;5115880;28;20176;-40
2021/06/05 02:21:57;;;;;;;35.25;31.02;;;;;;;18.63;86.41;101922.28;5115181;28;20039;-39
2021/06/05 02:24:28;;;;;;;35.35;31.60;;;;;;;18.68;86.37;101922.31;5115360;28;20028;-40
2021/06/05 02:26:53;;;;;;;34.95;30.73;;;;;;;18.69;86.60;101935.81;5114939;28;20070;-40
2021/06/05 02:29:20;;;;;;;;;;;;;;;18.85;84.33;101936.78;5115306;28;20059;-39
2021/06/05 02:31:46;;;;;;;34.42;30.75;;;;;;;18.69;86.04;101927.59;5114957;28;19934;-39
2021/06/05 02:34:14;;;;;;;;;;;;;;;18.86;84.16;101941.16;5115011;28;20027;-40
2021/06/05 02:36:42;;;;;;;35.30;30.85;;;;;;;18.74;85.96;101938.59;5114830;28;19912;-40
2021/06/05 02:39:09;;;;;;;35.45;31.70;;;;;;;18.78;85.68;101936.16;5114922;28;20030;-40
2021/06/05 02:41:35;;;;;;;40.03;35.05;;;;;;;18.73;85.72;101934.19;5114475;28;20028;-39
2021/06/05 02:44:01;;;;;;;39.47;35.42;;;;;;;18.71;85.88;101932.81;5114391;28;20034;-40
2021/06/05 02:46:31;;;;;;;;;;;;;;;18.86;84.25;101941.16;5115161;28;20526;-40
2021/06/05 02:49:18;;;;;;;38.78;33.28;;;;;;;18.74;85.64;101935.84;5114351;28;20413;-39
2021/06/05 02:51:55;;;;;;;39.97;35.78;;;;;;;18.76;85.64;101941.91;5113947;28;20116;-40
2021/06/05 02:54:23;;;;;;;39.75;35.53;;;;;;;18.72;85.23;101929.78;5115014;28;20024;-40
2021/06/05 02:56:49;;;;;;;40.85;36.83;;;;;;;18.66;84.80;101921.75;5114925;28;20394;-40
2021/06/05 02:59:15;;;;;;;40.90;36.80;;;;;;;18.73;85.46;101920.47;5114250;28;20454;-39
2021/06/05 03:01:40;;;;;;;;;;;;;;;18.83;83.60;101932.63;5115378;28;20081;-40
2021/06/05 03:04:06;;;;;;;42.47;38.38;;;;;;;18.61;85.63;101929.94;5114347;28;19969;-39
2021/06/05 03:06:32;;;;;;;;;;;;;;;18.76;84.31;101932.84;5114802;28;20522;-39
2021/06/05 03:08:58;;;;;;;43.28;39.13;;;;;;;18.48;85.76;101926.50;5113984;28;20329;-40
2021/06/05 03:11:24;;;;;;;;;;;;;;;18.62;84.03;101928.84;5114674;28;20028;-40
2021/06/05 03:13:50;;;;;;;41.05;36.58;;;;;;;18.58;84.82;101927.69;5114727;28;19914;-40
2021/06/05 03:16:16;;;;;;;;;;;;;;;18.59;83.83;101927.44;5115447;28;20027;-39
2021/06/05 03:18:42;;;;;;;44.00;39.65;;;;;;;18.33;85.79;101928.25;5114225;28;19927;-40
2021/06/05 03:21:17;;;;;;;44.72;40.30;;;;;;;18.38;86.13;101918.19;5114396;28;20097;-40
2021/06/05 03:23:45;;;;;;;47.50;42.83;;;;;;;18.22;86.98;101922.66;5114264;28;20042;-39
2021/06/05 03:26:11;;;;;;;49.47;44.58;;;;;;;18.19;86.76;101919.59;5113692;28;20028;-39
2021/06/05 03:28:37;;;;;;;;;;;;;;;18.34;84.93;101918.94;5114118;28;20077;-39
2021/06/05 03:31:03;;;;;;;48.95;43.95;;;;;;;18.17;86.78;101919.03;5113915;28;20310;-40
2021/06/05 03:33:29;;;;;;;51.20;45.85;;;;;;;18.16;86.89;101917.41;5114116;28;20034;-40
2021/06/05 03:35:55;;;;;;;;;;;;;;;18.30;85.41;101918.66;5114610;28;20028;-40
2021/06/05 03:38:22;;;;;;;51.40;46.03;;;;;;;18.07;86.85;101917.00;5113746;28;19983;-39
2021/06/05 03:40:48;;;;;;;51.80;46.50;;;;;;;18.06;86.47;101912.63;5112781;28;20534;-40
2021/06/05 03:43:13;;;;;;;;;;;;;;;18.22;84.87;101914.44;5114208;28;20063;-39
2021/06/05 03:45:39;;;;;;;52.47;47.00;;;;;;;18.00;85.99;101911.72;5114078;28;20275;-40
2021/06/05 03:48:05;;;;;;;;;;;;;;;18.18;84.37;101916.03;5114504;28;20069;-39
2021/06/05 03:50:34;;;;;;;53.30;47.15;;;;;;;18.00;86.12;101919.91;5114104;28;19915;-39
2021/06/05 03:53:00;;;;;;;56.60;50.60;;;;;;;17.87;86.67;101911.28;5114429;28;20028;-39
2021/06/05 03:55:25;;;;;;;;;;;;;;;17.98;84.99;101907.59;5114126;28;20038;-39
2021/06/05 03:57:51;;;;;;;52.03;46.65;;;;;;;17.89;86.11;101911.84;5113583;28;20014;-39
2021/06/05 04:00:20;;;;;;;;;;;;;;;18.01;84.66;101910.66;5114567;28;20077;-40
2021/06/05 04:02:46;;;;;;;53.20;47.65;;;;;;;17.97;86.32;101919.63;5113515;28;20371;-39
2021/06/05 04:05:11;;;;;;;;;;;;;;;18.04;84.83;101914.78;5113736;28;20102;-39
2021/06/05 04:07:37;;;;;;;53.42;47.70;;;;;;;17.93;85.72;101919.28;5113774;28;19953;-40
2021/06/05 04:10:05;;;;;;;58.47;51.53;;;;;;;17.88;86.17;101918.41;5113799;28;20027;-39
2021/06/05 04:12:30;;;;;;;57.45;51.35;;;;;;;17.91;86.45;101920.63;5113403;28;20027;-39
2021/06/05 04:14:56;;;;;;;;;;;;;;;18.03;84.34;101924.06;5114767;28;20119;-40
2021/06/05 04:17:21;;;;;;;57.90;49.97;;;;;;;17.92;85.31;101922.28;5113104;28;20072;-40
2021/06/05 04:19:46;;;;;;;;;;;;;;;18.05;84.40;101924.63;5114654;28;20050;-40
2021/06/05 04:22:12;;;;;;;54.73;48.37;;;;;;;18.01;84.84;101923.50;5113759;28;20407;-40
2021/06/05 04:24:37;;;;;;;;;;;;;;;18.11;83.97;101928.28;5113546;28;20629;-40
2021/06/05 04:27:04;;;;;;;53.60;47.67;;;;;;;17.98;84.87;101921.28;5113121;28;20006;-40
2021/06/05 04:29:31;;;;;;;59.53;52.55;;;;;;;17.97;85.29;101928.66;5114452;28;20027;-40
2021/06/05 04:31:57;;;;;;;63.42;54.25;;;;;;;17.89;85.28;101920.06;5113313;28;20084;-40
2021/06/05 04:34:22;;;;;;;;;;;;;;;18.08;83.76;101929.59;5114067;28;20028;-39
2021/06/05 04:36:52;;;;;;;63.80;52.20;;;;;;;17.91;85.15;101928.81;5113464;28;19912;-39
2021/06/05 04:39:17;;;;;;;66.70;54.33;;;;;;;17.90;85.50;101928.00;5113250;28;20031;-39
2021/06/05 04:41:42;;;;;;;;;;;;;;;18.00;83.88;101932.78;5113700;28;20024;-39
2021/06/05 04:44:08;;;;;;;63.72;53.70;;;;;;;17.81;84.87;101928.69;5113268;28;19914;-39
2021/06/05 04:46:33;;;;;;;;;;;;;;;17.94;83.89;101931.06;5113981;28;20028;-39
2021/06/05 04:48:58;;;;;;;69.68;54.42;;;;;;;17.80;85.44;101938.00;5113247;28;19907;-39
2021/06/05 04:51:25;;;;;;;;;;;;;;;17.92;84.33;101941.44;5113971;28;20030;-39
2021/06/05 04:53:51;;;;;;;75.22;54.28;;;;;;;17.77;85.18;101943.97;5116945;27;19908;-39
2021/06/05 04:56:30;;;;;;;74.47;55.92;;;;;;;17.80;84.99;101944.28;5116871;28;20028;-40
2021/06/05 04:58:56;;;;;;;77.40;57.58;;;;;;;17.74;85.15;101946.13;5116471;28;20059;-39
2021/06/05 05:01:21;;;;;;;;;;;;;;;17.88;84.11;101943.03;5117537;28;20058;-39
2021/06/05 05:03:46;;;;;;;78.80;56.17;;;;;;;17.71;85.33;101943.03;5116746;28;20337;-39
2021/06/05 05:06:12;;;;;;;78.22;56.50;;;;;;;17.66;85.77;101949.25;5117302;28;20754;-39
2021/06/05 05:08:37;;;;;;;;;;;;;;;17.78;84.28;101951.09;5117344;28;20027;-39
2021/06/05 05:11:04;;;;;;;76.30;57.25;;;;;;;17.62;85.47;101950.84;5117164;28;20252;-39
2021/06/05 05:13:32;;;;;;;83.18;58.30;;;;;;;17.51;86.18;101951.75;5116445;28;20363;-39
2021/06/05 05:15:59;;;;;;;79.30;56.85;;;;;;;17.49;85.93;101946.56;5116291;28;20027;-40
2021/06/05 05:18:25;;;;;;;86.15;59.75;;;;;;;17.39;86.39;101953.78;5116343;28;20023;-39
2021/06/05 05:20:51;;;;;;;;;;;;;;;17.57;84.86;101967.19;5117060;28;20467;-39
2021/06/05 05:23:17;;;;;;;86.90;59.55;;;;;;;17.40;86.74;101967.19;5116821;28;19911;-39
2021/06/05 05:25:44;;;;;;;86.10;58.92;;;;;;;17.37;86.54;101967.72;5115931;28;20487;-40
2021/06/05 05:28:12;;;;;;;89.32;58.42;;;;;;;17.34;86.46;101964.63;5116431;28;20027;-39
2021/06/05 05:30:41;;;;;;;87.13;59.75;;;;;;;17.24;86.87;101963.38;5116187;28;20028;-39
2021/06/05 05:33:08;;;;;;;83.60;54.88;;;;;;;17.36;85.92;101976.13;5116215;28;20066;-41
2021/06/05 05:35:35;;;;;;;81.18;54.30;;;;;;;17.23;86.60;101972.69;5116498;28;20039;-41
2021/06/05 05:38:02;;;;;;;73.63;52.95;;;;;;;17.38;85.91;101974.00;5116837;28;20031;-40
2021/06/05 05:40:28;;;;;;;73.47;49.38;;;;;;;17.34;85.97;101973.66;5116617;28;20028;-39
2021/06/05 05:42:54;;;;;;;74.35;49.95;;;;;;;17.28;85.37;101977.41;5116055;28;20093;-42
2021/06/05 05:45:20;;;;;;;;;;;;;;;17.40;85.01;101977.31;5116207;28;20028;-40
2021/06/05 05:47:46;;;;;;;68.68;48.45;;;;;;;17.20;86.12;101984.09;5115658;28;19907;-41
2021/06/05 05:50:13;;;;;;;;;;;;;;;17.40;84.77;101985.50;5116359;28;20084;-40
2021/06/05 05:52:38;;;;;;;64.82;44.58;;;;;;;17.34;85.07;101989.25;5115623;28;19907;-41
2021/06/05 05:55:04;;;;;;;;;;;;;;;17.45;83.92;101985.59;5116768;28;20024;-40
2021/06/05 05:57:29;;;;;;;60.22;44.72;;;;;;;17.32;85.98;101980.44;5115710;28;19912;-40
2021/06/05 05:59:54;;;;;;;59.70;42.85;;;;;;;17.36;85.26;101985.16;5115598;28;20038;-40
2021/06/05 06:02:20;;;;;;;;;;;;;;;17.48;84.26;101990.56;5116068;28;20039;-40
2021/06/05 06:04:45;;;;;;;56.70;38.87;;;;;;;17.40;84.95;101989.06;5115591;28;19908;-40
2021/06/05 06:07:10;;;;;;;;;;;;;;;17.53;83.69;101996.13;5116191;28;20269;-40
2021/06/05 06:09:36;;;;;;;54.42;38.30;;;;;;;17.43;84.40;102002.25;5116030;28;19915;-40
2021/06/05 06:12:01;;;;;;;;;;;;;;;17.59;83.71;101997.84;5115847;28;20038;-40
2021/06/05 06:14:27;;;;;;;51.80;37.13;;;;;;;17.53;84.02;101998.03;5115936;27;20010;-40
2021/06/05 06:16:52;;;;;;;;;;;;;;;17.67;82.88;102010.28;5115671;28;20080;-40
2021/06/05 06:19:17;;;;;;;53.63;37.42;;;;;;;17.52;83.61;102005.41;5115359;28;20018;-40
2021/06/05 06:21:44;;;;;;;54.58;37.92;;;;;;;17.50;84.09;102011.09;5115905;28;20139;-40
2021/06/05 06:24:10;;;;;;;55.80;39.55;;;;;;;17.53;83.85;102008.97;5116018;28;20035;-40
2021/06/05 06:26:37;;;;;;;57.72;39.70;;;;;;;17.48;84.52;102004.25;5115516;28;20027;-40
2021/06/05 06:29:12;;;;;;;53.85;38.13;;;;;;;17.57;84.67;102007.38;5115984;27;20031;-40
2021/06/05 06:31:37;;;;;;;55.33;37.45;;;;;;;17.56;84.50;102019.38;5115657;27;20467;-40
2021/06/05 06:34:03;;;;;;;58.65;39.88;;;;;;;17.54;84.49;102016.91;5115311;27;20053;-40
2021/06/05 06:36:28;;;;;;;53.00;37.45;;;;;;;17.59;84.74;102027.94;5115369;28;20027;-39
2021/06/05 06:38:54;;;;;;;;;;;;;;;17.70;83.27;102029.75;5115337;28;20112;-39
2021/06/05 06:41:24;;;;;;;52.55;36.47;;;;;;;17.66;83.77;102033.22;5115775;28;19912;-39
2021/06/05 06:43:50;;;;;;;56.42;38.80;;;;;;;17.75;83.75;102039.97;5114848;28;20467;-39
2021/06/05 06:46:21;;;;;;;52.88;38.55;;;;;;;17.73;83.38;102037.47;5114862;28;20111;-39
2021/06/05 06:48:49;;;;;;;50.10;35.60;;;;;;;17.95;83.51;102039.44;5114566;28;20031;-39
2021/06/05 06:51:14;;;;;;;49.13;34.08;;;;;;;17.99;83.48;102041.44;5114417;28;20080;-39
2021/06/05 06:53:39;;;;;;;;;;;;;;;18.21;82.38;102046.94;5115054;28;20028;-39
2021/06/05 06:56:06;;;;;;;50.70;34.70;;;;;;;18.12;82.21;102040.25;5114732;28;19912;-40
2021/06/05 06:58:31;;;;;;;50.45;35.30;;;;;;;18.12;82.60;102036.69;5114176;28;20281;-40
2021/06/05 07:00:57;;;;;;;;;;;;;;;18.30;82.29;102044.59;5114752;28;20035;-40
2021/06/05 07:03:22;;;;;;;48.17;34.42;;;;;;;18.24;82.23;102051.91;5114489;28;19938;-40
2021/06/05 07:05:48;;;;;;;;;;;;;;;18.31;81.68;102043.53;5115232;28;20028;-40
2021/06/05 07:08:23;;;;;;;44.20;31.75;;;;;;;18.24;81.79;102049.16;5114385;27;19982;-40
2021/06/05 07:10:53;;;;;;;44.83;31.52;;;;;;;18.31;81.78;102048.16;5114651;28;20030;-39
2021/06/05 07:13:19;;;;;;;47.28;33.25;;;;;;;18.33;81.82;102048.72;5114491;28;20471;-39
2021/06/05 07:15:44;;;;;;;;;;;;;;;18.53;81.50;102049.00;5115005;28;20049;-40
2021/06/05 07:18:11;;;;;;;44.40;29.48;;;;;;;18.38;81.68;102049.63;5114209;28;20383;-40
2021/06/05 07:20:37;;;;;;;43.72;30.40;;;;;;;18.46;81.35;102057.41;5114984;28;20040;-40
2021/06/05 07:23:02;;;;;;;41.47;30.70;;;;;;;18.40;80.41;102054.88;5114643;28;20035;-39
2021/06/05 07:25:28;;;;;;;;;;;;;;;18.60;80.83;102059.78;5115438;28;20050;-39
2021/06/05 07:27:55;;;;;;;37.50;26.50;;;;;;;18.45;81.08;102057.66;5113874;28;19912;-39
2021/06/05 07:30:21;;;;;;;35.65;27.17;;;;;;;18.53;81.42;102057.19;5114347;28;20024;-39
2021/06/05 07:32:46;;;;;;;;;;;;;;;18.67;80.52;102057.66;5114154;28;20027;-39
2021/06/05 07:35:11;;;;;;;32.10;23.98;;;;;;;18.47;80.19;102059.06;5114293;28;20282;-39
2021/06/05 07:37:37;;;;;;;;;;;;;;;18.65;80.52;102065.31;5114385;28;20401;-39
2021/06/05 07:40:07;;;;;;;29.77;21.60;;;;;;;18.54;80.50;102069.81;5114271;28;19912;-39
2021/06/05 07:42:34;;;;;;;28.80;21.65;;;;;;;18.43;79.63;102073.50;5113934;28;20744;-40
2021/06/05 07:45:00;;;;;;;24.85;20.73;;;;;;;18.47;79.28;102074.66;5115044;28;20352;-40
2021/06/05 07:47:26;;;;;;;;;;;;;;;18.58;79.43;102070.13;5114296;28;20030;-40
2021/06/05 07:49:52;;;;;;;24.83;19.80;;;;;;;18.34;80.10;102062.16;5113700;28;19916;-39
2021/06/05 07:52:23;;;;;;;23.00;20.25;;;;;;;18.41;80.64;102070.22;5123325;28;20273;-39
2021/06/05 07:54:49;;;;;;;31.27;22.40;;;;;;;18.28;80.10;102060.44;5134566;28;20023;-39
2021/06/05 07:57:14;;;;;;;;;;;;;;;18.49;79.79;102061.53;5134923;28;20046;-40
2021/06/05 07:59:41;;;;;;;24.48;19.65;;;;;;;18.35;79.60;102068.47;5134681;28;19911;-40
2021/06/05 08:02:07;;;;;;;24.40;20.27;;;;;;;18.27;79.89;102069.75;5134181;28;20019;-39
2021/06/05 08:04:32;;;;;;;;;;;;;;;18.45;79.75;102068.63;5135015;28;20095;-39
2021/06/05 08:06:57;;;;;;;23.23;19.20;;;;;;;18.34;80.29;102058.59;5133962;28;19912;-39
2021/06/05 08:09:22;;;;;;;;;;;;;;;18.38;79.38;102065.22;5134960;28;20253;-39
2021/06/05 08:11:48;;;;;;;23.13;18.97;;;;;;;18.30;80.89;102073.88;5134190;28;20324;-39
2021/06/05 08:14:13;;;;;;;;;;;;;;;18.39;79.81;102066.88;5134600;28;20361;-39
2021/06/05 08:16:39;;;;;;;19.60;16.37;;;;;;;18.24;80.22;102072.97;5133974;28;19911;-39
2021/06/05 08:19:08;;;;;;;22.58;18.38;;;;;;;18.27;80.70;102075.22;5134019;28;20456;-39
2021/06/05 08:21:33;;;;;;;21.65;17.77;;;;;;;18.25;80.24;102077.38;5134549;28;20051;-39
2021/06/05 08:23:58;;;;;;;;;;;;;;;18.40;79.65;102071.28;5134602;28;20351;-39
2021/06/05 08:26:24;;;;;;;23.60;16.43;;;;;;;18.30;79.96;102073.88;5134166;27;19948;-39
2021/06/05 08:28:49;;;;;;;;;;;;;;;18.44;79.55;102075.16;5138754;27;20276;-39
2021/06/05 08:31:17;;;;;;;19.47;15.87;;;;;;;18.28;80.10;102074.97;5138143;27;20384;-39
2021/06/05 08:33:43;;;;;;;19.70;16.88;;;;;;;18.16;80.27;102076.16;5137684;27;20330;-39
2021/06/05 08:36:09;;;;;;;;;;;;;;;18.34;79.58;102084.06;5138716;27;20027;-39
2021/06/05 08:38:35;;;;;;;22.60;18.40;;;;;;;18.13;80.17;102084.88;5137799;27;19912;-39
2021/06/05 08:41:15;;;;;;;;;;;;;;;18.25;79.99;102082.84;5138581;27;20037;-39
2021/06/05 08:43:46;;;;;;;19.73;15.90;;;;;;;18.05;80.79;102072.44;5138476;27;19915;-39
2021/06/05 08:46:14;;;;;;;20.67;17.20;;;;;;;18.13;81.54;102085.69;5138551;27;20062;-40
2021/06/05 08:48:40;;;;;;;20.27;16.88;;;;;;;18.19;81.04;102081.94;5136154;27;20027;-40
2021/06/05 08:51:08;;;;;;;;;;;;;;;18.28;80.08;102079.59;5138467;27;20023;-40
2021/06/05 08:53:34;;;;;;;25.67;20.55;;;;;;;18.16;80.86;102074.25;5137625;27;19914;-39
2021/06/05 08:56:01;;;;;;;;;;;;;;;18.27;80.33;102081.53;5138921;27;20113;-40
2021/06/05 08:58:30;;;;;;;;;;;;;;;18.33;79.83;102078.84;5137883;27;19911;-39
2021/06/05 09:01:05;;;;;;;28.15;23.33;;;;;;;18.20;80.87;102085.50;5137762;27;19964;-39
2021/06/05 09:03:32;;;;;;;31.25;24.50;;;;;;;18.18;80.56;102083.03;5137785;27;20027;-39
2021/06/05 09:06:07;;;;;;;30.02;24.55;;;;;;;18.16;81.24;102078.91;5138232;27;20038;-39
2021/06/05 09:08:32;;;;;;;31.90;24.67;;;;;;;18.20;80.87;102083.63;5137545;27;20027;-39
2021/06/05 09:10:59;;;;;;;;;;;;;;;18.38;80.03;102081.66;5137745;27;20527;-39
2021/06/05 09:13:25;;;;;;;31.20;24.83;;;;;;;18.30;81.21;102084.81;5136903;27;19942;-39
2021/06/05 09:16:10;;;;;;;;;;;;;;;18.44;80.21;102091.59;5138255;27;20030;-39
2021/06/05 09:18:54;;;;;;;34.28;24.83;;;;;;;18.33;81.02;102087.06;5137827;27;19934;-39
2021/06/05 09:21:33;;;;;;;31.17;26.17;;;;;;;18.28;80.63;102088.66;5137418;27;20490;-39
2021/06/05 09:24:10;;;;;;;34.13;28.85;;;;;;;18.22;81.26;102086.94;5136650;27;20023;-39
2021/06/05 09:26:35;;;;;;;35.05;26.15;;;;;;;18.24;81.13;102081.19;5135354;27;20027;-39
2021/06/05 09:29:17;;;;;;;;;;;;;;;18.36;80.05;102089.31;5137892;27;20035;-39
2021/06/05 09:32:11;;;;;;;29.77;25.20;;;;;;;18.25;79.99;102085.56;5136794;27;19923;-39
2021/06/05 09:34:40;;;;;;;32.78;25.15;;;;;;;18.12;80.12;102092.25;5135752;27;20063;-39
2021/06/05 09:37:24;;;;;;;30.52;24.63;;;;;;;18.10;80.17;102090.84;5136910;27;20041;-39
2021/06/05 09:40:07;;;;;;;33.13;26.25;;;;;;;18.10;80.34;102099.03;5135550;27;20082;-39
2021/06/05 09:42:39;;;;;;;34.08;26.40;;;;;;;18.05;80.54;102097.06;5136652;27;20031;-39
2021/06/05 09:45:06;;;;;;;32.92;25.95;;;;;;;18.09;80.76;102100.97;5137087;27;20027;-39
2021/06/05 09:47:32;;;;;;;35.15;27.77;;;;;;;18.10;80.55;102101.78;5136402;27;20135;-39
2021/06/05 09:50:27;;;;;;;;;;;;;;;18.22;79.60;102106.09;5137304;27;20023;-39
2021/06/05 09:52:53;;;;;;;32.13;25.55;;;;;;;18.10;79.78;102116.28;5114189;28;19922;-39
2021/06/05 09:55:18;;;;;;;;;;;;;;;18.19;79.58;102109.31;5114116;28;20035;-39
2021/06/05 09:57:48;;;;;;;32.83;25.50;;;;;;;18.05;79.69;102116.22;5113508;28;19912;-39
2021/06/05 10:00:13;;;;;;;34.42;26.80;;;;;;;18.00;80.45;102110.66;5113242;28;20043;-39
2021/06/05 10:02:40;;;;;;;;;;;;;;;18.11;79.83;102107.03;5113650;28;20372;-39
2021/06/05 10:05:15;;;;;;;32.22;25.15;;;;;;;17.99;80.33;102120.78;5113463;28;19911;-39
2021/06/05 10:07:41;;;;;;;33.88;25.70;;;;;;;17.85;80.41;102111.25;5113261;28;20042;-39
2021/06/05 10:10:06;;;;;;;;;;;;;;;18.04;79.94;102113.75;5113838;28;20048;-40
2021/06/05 10:12:37;;;;;;;32.67;25.48;;;;;;;17.96;80.20;102120.47;5113114;28;19912;-39
2021/06/05 10:15:11;;;;;;;30.50;24.88;;;;;;;17.91;81.10;102121.22;5113397;28;20035;-39
2021/06/05 10:17:58;;;;;;;31.33;24.60;;;;;;;18.02;80.02;102112.09;5113247;28;20499;-39
2021/06/05 10:20:46;;;;;;;29.40;24.17;;;;;;;18.02;79.89;102119.47;5112921;28;20051;-39
2021/06/05 10:23:16;;;;;;;29.48;23.50;;;;;;;18.16;79.73;102112.59;5113493;28;20413;-39
2021/06/05 10:25:48;;;;;;;28.95;23.67;;;;;;;18.25;78.75;102115.69;5112939;28;20032;-40
2021/06/05 10:28:32;;;;;;;28.48;22.92;;;;;;;18.35;78.86;102112.28;5114577;27;20043;-39
2021/06/05 10:31:08;;;;;;;24.45;21.30;;;;;;;18.37;78.83;102121.09;5136592;27;20067;-40
2021/06/05 10:33:47;;;;;;;24.27;21.55;;;;;;;18.40;78.74;102118.69;5135854;27;20019;-39
2021/06/05 10:36:31;;;;;;;22.02;19.90;;;;;;;18.54;77.94;102119.13;5136165;27;20023;-39
2021/06/05 10:39:07;;;;;;;21.63;19.35;;;;;;;18.67;77.22;102120.66;5135123;27;20383;-39
2021/06/05 10:41:39;;;;;;;20.27;18.25;;;;;;;18.87;76.61;102126.44;5135586;27;20031;-40
2021/06/05 10:44:06;;;;;;;19.00;17.20;;;;;;;19.23;76.41;102124.13;5135109;27;20035;-39
2021/06/05 10:46:54;;;;;;;17.02;15.43;;;;;;;19.50;75.41;102129.59;5135461;27;20023;-39
2021/06/05 10:49:23;;;;;;;17.25;14.98;;;;;;;19.71;73.45;102128.69;5135409;27;20340;-39
2021/06/05 10:51:58;;;;;;;15.02;13.60;;;;;;;19.85;72.69;102131.84;5134353;27;20031;-39
2021/06/05 10:54:27;;;;;;;14.48;13.15;;;;;;;19.97;72.07;102127.00;5135562;27;20080;-40
2021/06/05 10:57:02;;;;;;;15.20;13.70;;;;;;;20.29;72.46;102123.38;5135779;27;20077;-39
2021/06/05 10:59:49;;;;;;;13.23;12.07;;;;;;;20.53;70.83;102116.41;5135551;27;20026;-39
2021/06/05 11:02:41;;;;;;;13.75;12.45;;;;;;;20.62;70.38;102118.66;5135679;27;20027;-39
2021/06/05 11:05:16;;;;;;;12.48;11.35;;;;;;;20.48;69.72;102116.38;5135427;27;20120;-39
2021/06/05 11:07:41;;;;;;;11.05;10.05;;;;;;;20.46;68.77;102112.22;5135351;27;20031;-40
2021/06/05 11:10:07;;;;;;;;;;;;;;;20.65;70.01;102113.44;5135489;27;20027;-39
2021/06/05 11:12:33;;;;;;;11.60;10.60;;;;;;;20.45;68.97;102113.31;5135483;27;19907;-40
2021/06/05 11:14:59;;;;;;;11.57;10.45;;;;;;;20.49;69.39;102114.44;5135728;27;20443;-39
2021/06/05 11:17:33;;;;;;;;;;;;;;;20.75;70.59;102118.16;5135231;27;20027;-39
2021/06/05 11:20:08;;;;;;;10.40;9.40;;;;;;;20.69;68.38;102114.56;5134378;27;20262;-40
2021/06/05 11:22:54;;;;;;;11.15;10.10;;;;;;;20.73;69.03;102118.41;5135197;27;20046;-39
2021/06/05 11:25:19;;;;;;;11.57;10.57;;;;;;;20.75;67.36;102124.47;5130810;27;20058;-40
2021/06/05 11:27:52;;;;;;;11.15;10.15;;;;;;;20.76;67.27;102123.38;5134973;27;20035;-40
2021/06/05 11:30:20;;;;;;;12.02;10.68;;;;;;;20.82;67.44;102122.31;5134903;27;20037;-39
2021/06/05 11:32:52;;;;;;;12.73;10.38;;;;;;;20.66;67.62;102128.00;5134546;27;20095;-39
2021/06/05 11:35:35;;;;;;;12.05;10.95;;;;;;;20.85;67.65;102128.38;5134125;27;20114;-39
2021/06/05 11:38:07;;;;;;;11.90;10.85;;;;;;;20.85;67.45;102131.13;5134410;27;20027;-39